sensor_id;sensor_type;location;lat;lon;timestamp;temperature;humidity
17178;DHT22;8704;52.006;4.374;2023-08-24T00:00:27;17.60;99.90
17178;DHT22;8704;52.006;4.374;2023-08-24T00:02:55;17.60;99.90
17178;DHT22;8704;52.006;4.374;2023-08-24T00:05:23;17.60;99.90
17178;DHT22;8704;52.006;4.374;2023-08-24T00:07:53;17.60;99.90
17178;DHT22;8704;52.006;4.374;2023-08-24T00:10:21;17.60;99.90
17178;DHT22;8704;52.006;4.374;2023-08-24T00:12:49;17.60;99.90
17178;DHT22;8704;52.006;4.374;2023-08-24T00:15:17;17.70;99.90
17178;DHT22;8704;52.006;4.374;2023-08-24T00:17:45;17.70;99.90
17178;DHT22;8704;52.006;4.374;2023-08-24T00:20:13;17.70;99.90
17178;DHT22;8704;52.006;4.374;2023-08-24T00:22:41;17.70;99.90
17178;DHT22;8704;52.006;4.374;2023-08-24T00:25:11;17.70;99.90
17178;DHT22;8704;52.006;4.374;2023-08-24T00:27:41;17.70;99.90
17178;DHT22;8704;52.006;4.374;2023-08-24T00:30:10;17.60;99.90
17178;DHT22;8704;52.006;4.374;2023-08-24T00:32:39;17.60;99.90
17178;DHT22;8704;52.006;4.374;2023-08-24T00:35:08;17.60;99.90
17178;DHT22;8704;52.006;4.374;2023-08-24T00:37:37;17.60;99.90
17178;DHT22;8704;52.006;4.374;2023-08-24T00:40:07;17.60;99.90
17178;DHT22;8704;52.006;4.374;2023-08-24T00:42:41;17.60;99.90
17178;DHT22;8704;52.006;4.374;2023-08-24T00:45:12;17.60;99.90
17178;DHT22;8704;52.006;4.374;2023-08-24T00:47:43;17.60;99.90
17178;DHT22;8704;52.006;4.374;2023-08-24T00:50:11;17.60;99.90
17178;DHT22;8704;52.006;4.374;2023-08-24T00:52:41;17.70;99.90
17178;DHT22;8704;52.006;4.374;2023-08-24T00:55:09;17.70;99.90
17178;DHT22;8704;52.006;4.374;2023-08-24T00:57:38;17.80;99.90
17178;DHT22;8704;52.006;4.374;2023-08-24T01:00:09;17.70;99.90
17178;DHT22;8704;52.006;4.374;2023-08-24T01:02:38;17.70;99.90
17178;DHT22;8704;52.006;4.374;2023-08-24T01:05:07;17.80;99.90
17178;DHT22;8704;52.006;4.374;2023-08-24T01:07:37;17.70;99.90
17178;DHT22;8704;52.006;4.374;2023-08-24T01:10:07;17.70;99.90
17178;DHT22;8704;52.006;4.374;2023-08-24T01:12:46;17.70;99.90
17178;DHT22;8704;52.006;4.374;2023-08-24T01:15:20;17.70;99.90
17178;DHT22;8704;52.006;4.374;2023-08-24T01:17:52;17.70;99.90
17178;DHT22;8704;52.006;4.374;2023-08-24T01:20:22;17.80;99.90
17178;DHT22;8704;52.006;4.374;2023-08-24T01:22:56;17.70;99.90
17178;DHT22;8704;52.006;4.374;2023-08-24T01:25:34;17.70;99.90
17178;DHT22;8704;52.006;4.374;2023-08-24T01:28:07;17.70;99.90
17178;DHT22;8704;52.006;4.374;2023-08-24T01:30:36;17.80;99.90
17178;DHT22;8704;52.006;4.374;2023-08-24T01:33:05;17.80;99.90
17178;DHT22;8704;52.006;4.374;2023-08-24T01:35:38;17.80;99.90
17178;DHT22;8704;52.006;4.374;2023-08-24T01:38:07;17.80;99.90
17178;DHT22;8704;52.006;4.374;2023-08-24T01:40:44;17.80;99.90
17178;DHT22;8704;52.006;4.374;2023-08-24T01:43:15;17.80;99.90
17178;DHT22;8704;52.006;4.374;2023-08-24T01:45:58;17.80;99.90
17178;DHT22;8704;52.006;4.374;2023-08-24T01:48:29;17.80;99.90
17178;DHT22;8704;52.006;4.374;2023-08-24T01:50:58;17.70;99.90
17178;DHT22;8704;52.006;4.374;2023-08-24T01:53:29;17.70;99.90
17178;DHT22;8704;52.006;4.374;2023-08-24T01:55:57;17.70;99.90
17178;DHT22;8704;52.006;4.374;2023-08-24T01:58:27;17.70;1.00
17178;DHT22;8704;52.006;4.374;2023-08-24T02:00:55;17.70;1.00
17178;DHT22;8704;52.006;4.374;2023-08-24T02:03:23;17.70;1.00
17178;DHT22;8704;52.006;4.374;2023-08-24T02:05:51;17.70;1.00
17178;DHT22;8704;52.006;4.374;2023-08-24T02:08:19;17.60;1.00
17178;DHT22;8704;52.006;4.374;2023-08-24T02:10:47;17.60;1.00
17178;DHT22;8704;52.006;4.374;2023-08-24T02:13:15;17.60;1.00
17178;DHT22;8704;52.006;4.374;2023-08-24T02:15:45;17.50;1.00
17178;DHT22;8704;52.006;4.374;2023-08-24T02:18:13;17.50;1.00
17178;DHT22;8704;52.006;4.374;2023-08-24T02:20:42;17.50;1.00
17178;DHT22;8704;52.006;4.374;2023-08-24T02:23:11;17.50;1.00
17178;DHT22;8704;52.006;4.374;2023-08-24T02:25:42;17.50;1.00
17178;DHT22;8704;52.006;4.374;2023-08-24T02:28:10;17.50;1.00
17178;DHT22;8704;52.006;4.374;2023-08-24T02:30:38;17.50;1.00
17178;DHT22;8704;52.006;4.374;2023-08-24T02:33:07;17.50;1.00
17178;DHT22;8704;52.006;4.374;2023-08-24T02:35:35;17.50;1.00
17178;DHT22;8704;52.006;4.374;2023-08-24T02:38:03;17.40;1.00
17178;DHT22;8704;52.006;4.374;2023-08-24T02:40:31;17.40;1.00
17178;DHT22;8704;52.006;4.374;2023-08-24T02:43:00;17.40;1.00
17178;DHT22;8704;52.006;4.374;2023-08-24T02:45:28;17.40;1.00
17178;DHT22;8704;52.006;4.374;2023-08-24T02:47:56;17.40;1.00
17178;DHT22;8704;52.006;4.374;2023-08-24T02:50:25;17.40;1.00
17178;DHT22;8704;52.006;4.374;2023-08-24T02:52:53;17.40;1.00
17178;DHT22;8704;52.006;4.374;2023-08-24T02:55:22;17.30;1.00
17178;DHT22;8704;52.006;4.374;2023-08-24T02:57:50;17.30;1.00
17178;DHT22;8704;52.006;4.374;2023-08-24T03:00:18;17.30;1.00
17178;DHT22;8704;52.006;4.374;2023-08-24T03:02:46;17.30;1.00
17178;DHT22;8704;52.006;4.374;2023-08-24T03:05:15;17.30;1.00
17178;DHT22;8704;52.006;4.374;2023-08-24T03:07:44;17.30;1.00
17178;DHT22;8704;52.006;4.374;2023-08-24T03:10:12;17.30;1.00
17178;DHT22;8704;52.006;4.374;2023-08-24T03:12:40;17.30;1.00
17178;DHT22;8704;52.006;4.374;2023-08-24T03:15:08;17.30;1.00
17178;DHT22;8704;52.006;4.374;2023-08-24T03:17:36;17.30;1.00
17178;DHT22;8704;52.006;4.374;2023-08-24T03:20:06;17.30;1.00
17178;DHT22;8704;52.006;4.374;2023-08-24T03:22:34;17.30;2.80
17178;DHT22;8704;52.006;4.374;2023-08-24T03:25:04;17.20;39.40
17178;DHT22;8704;52.006;4.374;2023-08-24T03:27:33;17.20;74.60
17178;DHT22;8704;52.006;4.374;2023-08-24T03:30:01;17.20;61.00
17178;DHT22;8704;52.006;4.374;2023-08-24T03:32:30;17.20;99.90
17178;DHT22;8704;52.006;4.374;2023-08-24T03:34:59;17.20;99.90
17178;DHT22;8704;52.006;4.374;2023-08-24T03:37:27;17.10;99.90
17178;DHT22;8704;52.006;4.374;2023-08-24T03:39:55;17.20;99.90
17178;DHT22;8704;52.006;4.374;2023-08-24T03:42:24;17.10;99.90
17178;DHT22;8704;52.006;4.374;2023-08-24T03:44:52;17.10;99.90
17178;DHT22;8704;52.006;4.374;2023-08-24T03:47:20;17.10;99.90
17178;DHT22;8704;52.006;4.374;2023-08-24T03:49:49;17.10;99.90
17178;DHT22;8704;52.006;4.374;2023-08-24T03:52:17;17.10;99.90
17178;DHT22;8704;52.006;4.374;2023-08-24T03:54:45;17.10;99.90
17178;DHT22;8704;52.006;4.374;2023-08-24T03:57:13;17.10;99.90
17178;DHT22;8704;52.006;4.374;2023-08-24T03:59:43;17.00;99.90
17178;DHT22;8704;52.006;4.374;2023-08-24T04:02:11;17.10;99.90
17178;DHT22;8704;52.006;4.374;2023-08-24T04:04:39;17.00;99.90
17178;DHT22;8704;52.006;4.374;2023-08-24T04:07:07;17.00;99.90
17178;DHT22;8704;52.006;4.374;2023-08-24T04:09:35;17.00;1.00
17178;DHT22;8704;52.006;4.374;2023-08-24T04:12:04;17.00;1.00
17178;DHT22;8704;52.006;4.374;2023-08-24T04:14:32;17.00;1.00
17178;DHT22;8704;52.006;4.374;2023-08-24T04:17:02;17.00;1.00
17178;DHT22;8704;52.006;4.374;2023-08-24T04:19:30;17.10;1.00
17178;DHT22;8704;52.006;4.374;2023-08-24T04:21:58;17.00;1.00
17178;DHT22;8704;52.006;4.374;2023-08-24T04:24:26;17.00;1.00
17178;DHT22;8704;52.006;4.374;2023-08-24T04:26:54;17.00;1.00
17178;DHT22;8704;52.006;4.374;2023-08-24T04:29:23;17.00;1.00
17178;DHT22;8704;52.006;4.374;2023-08-24T04:31:51;17.00;1.00
17178;DHT22;8704;52.006;4.374;2023-08-24T04:34:20;17.00;1.00
17178;DHT22;8704;52.006;4.374;2023-08-24T04:36:48;17.00;1.00
17178;DHT22;8704;52.006;4.374;2023-08-24T04:39:16;17.00;1.00
17178;DHT22;8704;52.006;4.374;2023-08-24T04:41:45;17.00;1.00
17178;DHT22;8704;52.006;4.374;2023-08-24T04:44:13;17.00;13.90
17178;DHT22;8704;52.006;4.374;2023-08-24T04:46:41;17.00;1.00
17178;DHT22;8704;52.006;4.374;2023-08-24T04:49:09;17.00;1.00
17178;DHT22;8704;52.006;4.374;2023-08-24T04:51:39;17.00;99.90
17178;DHT22;8704;52.006;4.374;2023-08-24T04:54:07;17.00;99.90
17178;DHT22;8704;52.006;4.374;2023-08-24T04:56:36;17.00;99.90
17178;DHT22;8704;52.006;4.374;2023-08-24T04:59:04;17.00;99.90
17178;DHT22;8704;52.006;4.374;2023-08-24T05:01:34;16.90;99.90
17178;DHT22;8704;52.006;4.374;2023-08-24T05:04:02;17.00;91.90
17178;DHT22;8704;52.006;4.374;2023-08-24T05:06:31;17.00;99.90
17178;DHT22;8704;52.006;4.374;2023-08-24T05:09:00;17.00;99.90
17178;DHT22;8704;52.006;4.374;2023-08-24T05:11:29;17.00;99.90
17178;DHT22;8704;52.006;4.374;2023-08-24T05:13:57;17.00;99.90
17178;DHT22;8704;52.006;4.374;2023-08-24T05:16:25;17.00;99.90
17178;DHT22;8704;52.006;4.374;2023-08-24T05:18:54;17.00;99.90
17178;DHT22;8704;52.006;4.374;2023-08-24T05:21:22;17.00;1.00
17178;DHT22;8704;52.006;4.374;2023-08-24T05:23:51;17.00;1.00
17178;DHT22;8704;52.006;4.374;2023-08-24T05:26:20;17.10;1.00
17178;DHT22;8704;52.006;4.374;2023-08-24T05:28:52;17.00;1.00
17178;DHT22;8704;52.006;4.374;2023-08-24T05:31:20;17.10;1.00
17178;DHT22;8704;52.006;4.374;2023-08-24T05:33:49;17.10;1.00
17178;DHT22;8704;52.006;4.374;2023-08-24T05:36:17;17.10;1.00
17178;DHT22;8704;52.006;4.374;2023-08-24T05:38:45;17.10;1.00
17178;DHT22;8704;52.006;4.374;2023-08-24T05:41:30;17.10;1.00
17178;DHT22;8704;52.006;4.374;2023-08-24T05:43:59;17.10;1.00
17178;DHT22;8704;52.006;4.374;2023-08-24T05:46:27;17.20;1.00
17178;DHT22;8704;52.006;4.374;2023-08-24T05:48:57;17.20;1.00
17178;DHT22;8704;52.006;4.374;2023-08-24T05:51:26;17.20;1.00
17178;DHT22;8704;52.006;4.374;2023-08-24T05:53:54;17.20;1.00
17178;DHT22;8704;52.006;4.374;2023-08-24T05:56:23;17.30;1.00
17178;DHT22;8704;52.006;4.374;2023-08-24T05:58:54;17.30;1.00
17178;DHT22;8704;52.006;4.374;2023-08-24T06:01:22;17.30;1.00
17178;DHT22;8704;52.006;4.374;2023-08-24T06:03:50;17.30;1.00
17178;DHT22;8704;52.006;4.374;2023-08-24T06:06:18;17.30;1.00
17178;DHT22;8704;52.006;4.374;2023-08-24T06:08:46;17.40;1.00
17178;DHT22;8704;52.006;4.374;2023-08-24T06:11:14;17.50;1.00
17178;DHT22;8704;52.006;4.374;2023-08-24T06:13:42;17.50;1.00
17178;DHT22;8704;52.006;4.374;2023-08-24T06:16:12;17.50;31.90
17178;DHT22;8704;52.006;4.374;2023-08-24T06:18:40;17.60;71.90
17178;DHT22;8704;52.006;4.374;2023-08-24T06:21:08;17.60;99.90
17178;DHT22;8704;52.006;4.374;2023-08-24T06:23:36;17.70;99.90
17178;DHT22;8704;52.006;4.374;2023-08-24T06:26:04;17.70;99.90
17178;DHT22;8704;52.006;4.374;2023-08-24T06:28:32;17.80;99.90
17178;DHT22;8704;52.006;4.374;2023-08-24T06:31:01;17.80;99.90
17178;DHT22;8704;52.006;4.374;2023-08-24T06:33:33;17.80;99.90
17178;DHT22;8704;52.006;4.374;2023-08-24T06:36:01;17.90;1.00
17178;DHT22;8704;52.006;4.374;2023-08-24T06:38:29;17.90;1.00
17178;DHT22;8704;52.006;4.374;2023-08-24T06:40:57;17.90;1.00
17178;DHT22;8704;52.006;4.374;2023-08-24T06:43:26;18.00;99.90
17178;DHT22;8704;52.006;4.374;2023-08-24T06:45:55;18.10;1.00
17178;DHT22;8704;52.006;4.374;2023-08-24T06:48:23;18.10;1.00
17178;DHT22;8704;52.006;4.374;2023-08-24T06:50:53;18.10;12.00
17178;DHT22;8704;52.006;4.374;2023-08-24T06:53:21;18.20;1.00
17178;DHT22;8704;52.006;4.374;2023-08-24T06:55:54;18.30;1.00
17178;DHT22;8704;52.006;4.374;2023-08-24T06:58:22;18.30;1.00
17178;DHT22;8704;52.006;4.374;2023-08-24T07:00:50;18.40;1.00
17178;DHT22;8704;52.006;4.374;2023-08-24T07:03:19;18.50;1.00
17178;DHT22;8704;52.006;4.374;2023-08-24T07:05:47;18.50;1.00
17178;DHT22;8704;52.006;4.374;2023-08-24T07:08:17;18.60;1.00
17178;DHT22;8704;52.006;4.374;2023-08-24T07:10:45;18.60;99.90
17178;DHT22;8704;52.006;4.374;2023-08-24T07:13:13;18.70;99.90
17178;DHT22;8704;52.006;4.374;2023-08-24T07:15:42;18.80;99.90
17178;DHT22;8704;52.006;4.374;2023-08-24T07:18:12;18.80;1.00
17178;DHT22;8704;52.006;4.374;2023-08-24T07:20:40;18.90;1.00
17178;DHT22;8704;52.006;4.374;2023-08-24T07:23:08;19.00;1.00
17178;DHT22;8704;52.006;4.374;2023-08-24T07:25:38;19.10;1.00
17178;DHT22;8704;52.006;4.374;2023-08-24T07:28:06;19.30;1.00
17178;DHT22;8704;52.006;4.374;2023-08-24T07:30:36;19.40;99.90
17178;DHT22;8704;52.006;4.374;2023-08-24T07:33:04;19.50;99.90
17178;DHT22;8704;52.006;4.374;2023-08-24T07:35:32;19.60;99.90
17178;DHT22;8704;52.006;4.374;2023-08-24T07:38:00;19.70;99.90
17178;DHT22;8704;52.006;4.374;2023-08-24T07:40:29;19.80;99.90
17178;DHT22;8704;52.006;4.374;2023-08-24T07:42:58;19.90;99.90
17178;DHT22;8704;52.006;4.374;2023-08-24T07:45:27;19.90;1.00
17178;DHT22;8704;52.006;4.374;2023-08-24T07:47:56;20.00;1.00
17178;DHT22;8704;52.006;4.374;2023-08-24T07:50:24;20.10;1.00
17178;DHT22;8704;52.006;4.374;2023-08-24T07:52:52;20.20;1.00
17178;DHT22;8704;52.006;4.374;2023-08-24T07:55:23;20.30;1.00
17178;DHT22;8704;52.006;4.374;2023-08-24T07:57:52;20.40;1.00
17178;DHT22;8704;52.006;4.374;2023-08-24T08:00:21;20.50;1.00
17178;DHT22;8704;52.006;4.374;2023-08-24T08:02:51;20.60;1.00
17178;DHT22;8704;52.006;4.374;2023-08-24T08:05:19;20.70;1.00
17178;DHT22;8704;52.006;4.374;2023-08-24T08:07:47;20.80;1.00
17178;DHT22;8704;52.006;4.374;2023-08-24T08:10:16;20.80;1.00
17178;DHT22;8704;52.006;4.374;2023-08-24T08:12:47;21.00;1.00
17178;DHT22;8704;52.006;4.374;2023-08-24T08:15:15;21.00;1.00
17178;DHT22;8704;52.006;4.374;2023-08-24T08:17:44;21.10;1.00
17178;DHT22;8704;52.006;4.374;2023-08-24T08:20:14;21.20;1.00
17178;DHT22;8704;52.006;4.374;2023-08-24T08:22:42;21.30;1.00
17178;DHT22;8704;52.006;4.374;2023-08-24T08:25:11;21.30;99.90
17178;DHT22;8704;52.006;4.374;2023-08-24T08:27:39;21.40;99.90
17178;DHT22;8704;52.006;4.374;2023-08-24T08:30:08;21.50;1.00
17178;DHT22;8704;52.006;4.374;2023-08-24T08:32:37;21.50;1.00
17178;DHT22;8704;52.006;4.374;2023-08-24T08:35:07;21.60;1.00
17178;DHT22;8704;52.006;4.374;2023-08-24T08:37:36;21.70;99.90
17178;DHT22;8704;52.006;4.374;2023-08-24T08:40:05;21.80;99.90
17178;DHT22;8704;52.006;4.374;2023-08-24T08:42:35;21.80;99.90
17178;DHT22;8704;52.006;4.374;2023-08-24T08:45:08;21.90;99.90
17178;DHT22;8704;52.006;4.374;2023-08-24T08:47:37;21.90;99.90
17178;DHT22;8704;52.006;4.374;2023-08-24T08:50:07;22.00;99.90
17178;DHT22;8704;52.006;4.374;2023-08-24T08:52:35;22.10;99.90
17178;DHT22;8704;52.006;4.374;2023-08-24T08:55:04;22.20;99.90
17178;DHT22;8704;52.006;4.374;2023-08-24T08:57:34;22.30;99.90
17178;DHT22;8704;52.006;4.374;2023-08-24T09:00:02;22.30;99.90
17178;DHT22;8704;52.006;4.374;2023-08-24T09:02:32;22.40;99.90
17178;DHT22;8704;52.006;4.374;2023-08-24T09:05:00;22.40;99.90
17178;DHT22;8704;52.006;4.374;2023-08-24T09:07:32;22.50;99.90
17178;DHT22;8704;52.006;4.374;2023-08-24T09:10:02;22.50;99.90
17178;DHT22;8704;52.006;4.374;2023-08-24T09:12:34;22.60;99.90
17178;DHT22;8704;52.006;4.374;2023-08-24T09:15:03;22.60;99.90
17178;DHT22;8704;52.006;4.374;2023-08-24T09:17:33;22.80;99.90
17178;DHT22;8704;52.006;4.374;2023-08-24T09:20:07;22.80;99.90
17178;DHT22;8704;52.006;4.374;2023-08-24T09:22:38;22.80;99.90
17178;DHT22;8704;52.006;4.374;2023-08-24T09:25:10;22.90;99.90
17178;DHT22;8704;52.006;4.374;2023-08-24T09:27:38;22.90;99.90
17178;DHT22;8704;52.006;4.374;2023-08-24T09:30:07;22.90;99.90
17178;DHT22;8704;52.006;4.374;2023-08-24T09:32:35;22.90;99.90
17178;DHT22;8704;52.006;4.374;2023-08-24T09:35:06;22.90;99.90
17178;DHT22;8704;52.006;4.374;2023-08-24T09:37:37;22.90;99.90
17178;DHT22;8704;52.006;4.374;2023-08-24T09:40:07;22.90;99.90
17178;DHT22;8704;52.006;4.374;2023-08-24T09:42:38;22.90;99.90
17178;DHT22;8704;52.006;4.374;2023-08-24T09:45:12;22.90;99.90
17178;DHT22;8704;52.006;4.374;2023-08-24T09:47:45;22.80;99.90
17178;DHT22;8704;52.006;4.374;2023-08-24T09:50:14;22.80;99.90
17178;DHT22;8704;52.006;4.374;2023-08-24T09:52:44;22.80;99.90
17178;DHT22;8704;52.006;4.374;2023-08-24T09:55:15;22.70;99.90
17178;DHT22;8704;52.006;4.374;2023-08-24T09:57:46;22.70;99.90
17178;DHT22;8704;52.006;4.374;2023-08-24T10:00:16;22.70;99.90
17178;DHT22;8704;52.006;4.374;2023-08-24T10:02:50;22.70;99.90
17178;DHT22;8704;52.006;4.374;2023-08-24T10:05:22;22.70;99.90
17178;DHT22;8704;52.006;4.374;2023-08-24T10:08:09;22.70;99.90
17178;DHT22;8704;52.006;4.374;2023-08-24T10:10:40;22.70;99.90
17178;DHT22;8704;52.006;4.374;2023-08-24T10:13:14;22.70;99.90
17178;DHT22;8704;52.006;4.374;2023-08-24T10:15:47;22.80;99.90
17178;DHT22;8704;52.006;4.374;2023-08-24T10:18:17;22.80;99.90
17178;DHT22;8704;52.006;4.374;2023-08-24T10:20:47;22.80;99.90
17178;DHT22;8704;52.006;4.374;2023-08-24T10:23:17;22.90;99.90
17178;DHT22;8704;52.006;4.374;2023-08-24T10:25:46;23.00;99.90
17178;DHT22;8704;52.006;4.374;2023-08-24T10:28:16;23.00;99.90
17178;DHT22;8704;52.006;4.374;2023-08-24T10:30:46;23.10;99.90
17178;DHT22;8704;52.006;4.374;2023-08-24T10:33:15;23.20;99.90
17178;DHT22;8704;52.006;4.374;2023-08-24T10:35:44;23.30;99.90
17178;DHT22;8704;52.006;4.374;2023-08-24T10:38:25;23.30;99.90
17178;DHT22;8704;52.006;4.374;2023-08-24T10:40:54;23.40;99.90
17178;DHT22;8704;52.006;4.374;2023-08-24T10:43:22;23.50;99.90
17178;DHT22;8704;52.006;4.374;2023-08-24T10:45:57;23.60;99.90
17178;DHT22;8704;52.006;4.374;2023-08-24T10:48:27;23.80;99.90
17178;DHT22;8704;52.006;4.374;2023-08-24T10:51:18;23.80;99.90
17178;DHT22;8704;52.006;4.374;2023-08-24T10:53:52;23.80;99.90
17178;DHT22;8704;52.006;4.374;2023-08-24T10:56:20;23.80;99.90
17178;DHT22;8704;52.006;4.374;2023-08-24T10:59:12;23.80;99.90
17178;DHT22;8704;52.006;4.374;2023-08-24T11:01:41;23.90;99.90
17178;DHT22;8704;52.006;4.374;2023-08-24T11:04:10;23.90;99.90
17178;DHT22;8704;52.006;4.374;2023-08-24T11:06:56;24.00;99.90
17178;DHT22;8704;52.006;4.374;2023-08-24T11:09:44;24.00;99.90
17178;DHT22;8704;52.006;4.374;2023-08-24T11:12:13;24.00;99.90
17178;DHT22;8704;52.006;4.374;2023-08-24T11:14:49;24.00;99.90
17178;DHT22;8704;52.006;4.374;2023-08-24T11:17:19;23.90;99.90
17178;DHT22;8704;52.006;4.374;2023-08-24T11:19:48;24.00;99.90
17178;DHT22;8704;52.006;4.374;2023-08-24T11:22:17;23.90;99.90
17178;DHT22;8704;52.006;4.374;2023-08-24T11:24:47;23.90;99.90
17178;DHT22;8704;52.006;4.374;2023-08-24T11:27:15;23.90;99.90
17178;DHT22;8704;52.006;4.374;2023-08-24T11:29:43;24.00;99.90
17178;DHT22;8704;52.006;4.374;2023-08-24T11:32:11;23.90;99.90
17178;DHT22;8704;52.006;4.374;2023-08-24T11:34:40;23.90;99.90
17178;DHT22;8704;52.006;4.374;2023-08-24T11:37:18;23.90;99.90
17178;DHT22;8704;52.006;4.374;2023-08-24T11:39:48;23.90;99.90
17178;DHT22;8704;52.006;4.374;2023-08-24T11:42:16;24.00;99.90
17178;DHT22;8704;52.006;4.374;2023-08-24T11:44:45;23.90;99.90
17178;DHT22;8704;52.006;4.374;2023-08-24T11:47:14;24.00;99.90
17178;DHT22;8704;52.006;4.374;2023-08-24T11:49:43;24.10;99.90
17178;DHT22;8704;52.006;4.374;2023-08-24T11:52:11;24.10;99.90
17178;DHT22;8704;52.006;4.374;2023-08-24T11:54:42;24.10;99.90
17178;DHT22;8704;52.006;4.374;2023-08-24T11:57:12;24.20;99.90
17178;DHT22;8704;52.006;4.374;2023-08-24T11:59:41;24.40;99.90
17178;DHT22;8704;52.006;4.374;2023-08-24T12:02:10;24.50;99.90
17178;DHT22;8704;52.006;4.374;2023-08-24T12:04:39;24.50;99.90
17178;DHT22;8704;52.006;4.374;2023-08-24T12:07:10;24.60;99.90
17178;DHT22;8704;52.006;4.374;2023-08-24T12:09:39;24.70;99.90
17178;DHT22;8704;52.006;4.374;2023-08-24T12:12:13;24.70;99.90
17178;DHT22;8704;52.006;4.374;2023-08-24T12:14:41;24.90;99.90
17178;DHT22;8704;52.006;4.374;2023-08-24T12:17:10;24.90;99.90
17178;DHT22;8704;52.006;4.374;2023-08-24T12:19:41;25.20;99.90
17178;DHT22;8704;52.006;4.374;2023-08-24T12:22:13;25.40;99.90
17178;DHT22;8704;52.006;4.374;2023-08-24T12:24:43;25.80;99.90
17178;DHT22;8704;52.006;4.374;2023-08-24T12:27:18;26.00;99.90
17178;DHT22;8704;52.006;4.374;2023-08-24T12:29:47;26.20;96.30
17178;DHT22;8704;52.006;4.374;2023-08-24T12:32:16;26.30;99.90
17178;DHT22;8704;52.006;4.374;2023-08-24T12:34:47;26.30;38.80
17178;DHT22;8704;52.006;4.374;2023-08-24T12:37:15;26.40;42.90
17178;DHT22;8704;52.006;4.374;2023-08-24T12:39:43;26.50;36.30
17178;DHT22;8704;52.006;4.374;2023-08-24T12:42:11;26.60;29.10
17178;DHT22;8704;52.006;4.374;2023-08-24T12:44:41;26.60;12.80
17178;DHT22;8704;52.006;4.374;2023-08-24T12:47:09;26.70;61.20
17178;DHT22;8704;52.006;4.374;2023-08-24T12:49:37;26.90;36.00
17178;DHT22;8704;52.006;4.374;2023-08-24T12:52:06;26.90;1.00
17178;DHT22;8704;52.006;4.374;2023-08-24T12:54:34;27.00;1.00
17178;DHT22;8704;52.006;4.374;2023-08-24T12:57:02;26.90;1.00
17178;DHT22;8704;52.006;4.374;2023-08-24T12:59:30;27.00;1.00
17178;DHT22;8704;52.006;4.374;2023-08-24T13:02:00;27.20;10.90
17178;DHT22;8704;52.006;4.374;2023-08-24T13:04:28;27.30;1.00
17178;DHT22;8704;52.006;4.374;2023-08-24T13:06:57;27.40;1.00
17178;DHT22;8704;52.006;4.374;2023-08-24T13:09:25;27.70;1.00
17178;DHT22;8704;52.006;4.374;2023-08-24T13:11:54;27.60;1.00
17178;DHT22;8704;52.006;4.374;2023-08-24T13:14:22;27.70;1.00
17178;DHT22;8704;52.006;4.374;2023-08-24T13:16:50;27.80;1.00
17178;DHT22;8704;52.006;4.374;2023-08-24T13:19:19;27.70;1.00
17178;DHT22;8704;52.006;4.374;2023-08-24T13:21:47;27.70;1.00
17178;DHT22;8704;52.006;4.374;2023-08-24T13:24:15;27.70;1.00
17178;DHT22;8704;52.006;4.374;2023-08-24T13:26:43;27.70;1.00
17178;DHT22;8704;52.006;4.374;2023-08-24T13:29:11;27.80;1.00
17178;DHT22;8704;52.006;4.374;2023-08-24T13:31:43;28.00;1.00
17178;DHT22;8704;52.006;4.374;2023-08-24T13:34:11;28.10;1.00
17178;DHT22;8704;52.006;4.374;2023-08-24T13:36:41;28.00;1.00
17178;DHT22;8704;52.006;4.374;2023-08-24T13:39:08;28.10;1.00
17178;DHT22;8704;52.006;4.374;2023-08-24T13:41:37;28.10;1.00
17178;DHT22;8704;52.006;4.374;2023-08-24T13:44:05;28.30;1.00
17178;DHT22;8704;52.006;4.374;2023-08-24T13:46:34;28.30;1.00
17178;DHT22;8704;52.006;4.374;2023-08-24T13:49:02;28.20;1.00
17178;DHT22;8704;52.006;4.374;2023-08-24T13:51:30;28.10;1.00
17178;DHT22;8704;52.006;4.374;2023-08-24T13:54:00;28.00;1.00
17178;DHT22;8704;52.006;4.374;2023-08-24T13:56:28;27.90;1.00
17178;DHT22;8704;52.006;4.374;2023-08-24T13:58:56;27.80;1.00
17178;DHT22;8704;52.006;4.374;2023-08-24T14:01:24;27.90;1.00
17178;DHT22;8704;52.006;4.374;2023-08-24T14:03:53;27.90;1.00
17178;DHT22;8704;52.006;4.374;2023-08-24T14:06:21;27.80;1.00
17178;DHT22;8704;52.006;4.374;2023-08-24T14:08:49;27.70;1.00
17178;DHT22;8704;52.006;4.374;2023-08-24T14:11:18;27.60;1.00
17178;DHT22;8704;52.006;4.374;2023-08-24T14:13:46;27.60;1.00
17178;DHT22;8704;52.006;4.374;2023-08-24T14:16:14;27.50;1.00
17178;DHT22;8704;52.006;4.374;2023-08-24T14:18:43;27.40;1.00
17178;DHT22;8704;52.006;4.374;2023-08-24T14:21:11;27.30;1.00
17178;DHT22;8704;52.006;4.374;2023-08-24T14:23:41;27.40;1.00
17178;DHT22;8704;52.006;4.374;2023-08-24T14:26:10;27.20;1.00
17178;DHT22;8704;52.006;4.374;2023-08-24T14:28:50;27.20;1.00
17178;DHT22;8704;52.006;4.374;2023-08-24T14:31:22;27.40;1.00
17178;DHT22;8704;52.006;4.374;2023-08-24T14:33:51;27.60;1.00
17178;DHT22;8704;52.006;4.374;2023-08-24T14:36:20;27.70;1.00
17178;DHT22;8704;52.006;4.374;2023-08-24T14:38:48;27.90;1.00
17178;DHT22;8704;52.006;4.374;2023-08-24T14:41:18;28.00;1.00
17178;DHT22;8704;52.006;4.374;2023-08-24T14:43:47;28.10;1.00
17178;DHT22;8704;52.006;4.374;2023-08-24T14:46:16;28.20;1.00
17178;DHT22;8704;52.006;4.374;2023-08-24T14:48:44;28.30;1.00
17178;DHT22;8704;52.006;4.374;2023-08-24T14:51:12;28.20;1.00
17178;DHT22;8704;52.006;4.374;2023-08-24T14:53:41;28.40;1.00
17178;DHT22;8704;52.006;4.374;2023-08-24T14:56:09;28.50;1.00
17178;DHT22;8704;52.006;4.374;2023-08-24T14:58:37;28.40;1.00
17178;DHT22;8704;52.006;4.374;2023-08-24T15:01:05;28.30;1.00
17178;DHT22;8704;52.006;4.374;2023-08-24T15:03:35;28.40;1.00
17178;DHT22;8704;52.006;4.374;2023-08-24T15:06:04;28.30;1.00
17178;DHT22;8704;52.006;4.374;2023-08-24T15:08:33;28.50;1.00
17178;DHT22;8704;52.006;4.374;2023-08-24T15:11:03;28.60;1.00
17178;DHT22;8704;52.006;4.374;2023-08-24T15:13:33;28.50;1.00
17178;DHT22;8704;52.006;4.374;2023-08-24T15:16:01;28.60;1.00
17178;DHT22;8704;52.006;4.374;2023-08-24T15:18:30;28.80;1.00
17178;DHT22;8704;52.006;4.374;2023-08-24T15:20:59;28.80;1.00
17178;DHT22;8704;52.006;4.374;2023-08-24T15:23:28;28.90;1.00
17178;DHT22;8704;52.006;4.374;2023-08-24T15:25:57;29.00;1.00
17178;DHT22;8704;52.006;4.374;2023-08-24T15:28:26;29.10;1.00
17178;DHT22;8704;52.006;4.374;2023-08-24T15:30:55;29.10;1.00
17178;DHT22;8704;52.006;4.374;2023-08-24T15:33:23;29.10;1.00
17178;DHT22;8704;52.006;4.374;2023-08-24T15:35:51;29.20;1.00
17178;DHT22;8704;52.006;4.374;2023-08-24T15:38:20;29.00;1.00
17178;DHT22;8704;52.006;4.374;2023-08-24T15:40:52;29.00;1.00
17178;DHT22;8704;52.006;4.374;2023-08-24T15:43:21;28.90;1.00
17178;DHT22;8704;52.006;4.374;2023-08-24T15:45:49;28.90;1.00
17178;DHT22;8704;52.006;4.374;2023-08-24T15:48:19;28.70;1.00
17178;DHT22;8704;52.006;4.374;2023-08-24T15:50:47;28.60;1.00
17178;DHT22;8704;52.006;4.374;2023-08-24T15:53:15;28.60;1.00
17178;DHT22;8704;52.006;4.374;2023-08-24T15:55:45;28.60;1.00
17178;DHT22;8704;52.006;4.374;2023-08-24T15:58:13;28.50;1.00
17178;DHT22;8704;52.006;4.374;2023-08-24T16:00:41;28.50;1.00
17178;DHT22;8704;52.006;4.374;2023-08-24T16:03:09;28.40;1.00
17178;DHT22;8704;52.006;4.374;2023-08-24T16:05:37;28.30;1.00
17178;DHT22;8704;52.006;4.374;2023-08-24T16:08:05;28.00;1.00